Time;durP1;ratioP1;P1;durP2;ratioP2;P2;SDS_P1;SDS_P2;PMS_P1;PMS_P2;Temp;Humidity;BMP_temperature;BMP_pressure;BME280_temperature;BME280_humidity;BME280_pressure;Samples;Min_cycle;Max_cycle;Signal;HPM_P1;HPM_P2
2023/03/13 06:01:07;;;;;;;;;5.00;4.00;;;;;15.27;81.27;-19618.25;6068388;23;46116;-89
2023/03/13 06:03:32;;;;;;;;;3.33;3.33;;;;;15.51;80.94;-19624.56;4987862;28;45399;-89
2023/03/13 06:05:58;;;;;;;;;3.00;3.00;;;;;15.10;80.95;-19613.81;4996139;28;45422;-89
2023/03/13 06:08:23;;;;;;;;;7.00;4.00;;;;;15.16;81.32;-19615.31;4995305;28;45540;-89
2023/03/13 06:10:48;;;;;;;;;3.00;3.00;;;;;15.34;81.70;-19620.00;4992887;28;45531;-89
2023/03/13 06:13:14;;;;;;;;;4.00;4.00;;;;;14.94;81.75;-19609.66;4984868;28;45621;-90
2023/03/13 06:15:39;;;;;;;;;3.00;3.00;;;;;15.47;81.94;-19623.47;4995952;28;45418;-88
2023/03/13 06:18:05;;;;;;;;;4.67;3.00;;;;;14.96;81.71;-19610.06;4997890;28;45397;-88
2023/03/13 06:20:30;;;;;;;;;3.67;3.67;;;;;14.87;81.78;-19607.78;4973368;28;45667;-88
2023/03/13 06:22:55;;;;;;;;;3.00;3.00;;;;;14.56;81.96;-19599.72;4982333;28;45872;-88
2023/03/13 06:25:21;;;;;;;;;4.33;3.33;;;;;15.48;81.93;-19623.63;5010604;28;45454;-89
2023/03/13 06:27:46;;;;;;;;;3.33;3.33;;;;;15.08;81.97;-19613.16;5015092;28;45475;-88
2023/03/13 06:30:12;;;;;;;;;4.00;3.00;;;;;15.49;81.78;-19623.88;4996389;28;45360;-88
2023/03/13 06:32:37;;;;;;;;;3.67;3.67;;;;;15.48;81.71;-19623.75;4995021;28;45355;-88
2023/03/13 06:35:04;;;;;;;;;3.67;2.33;;;;;15.45;81.56;-19622.94;4994900;28;47028;-88
2023/03/13 06:37:29;;;;;;;;;4.00;2.67;;;;;15.46;82.12;-19623.09;4975407;28;48247;-89
2023/03/13 06:39:54;;;;;;;;;4.00;3.33;;;;;15.48;81.60;-19623.75;4983073;28;45491;-88
2023/03/13 06:42:20;;;;;;;;;3.00;3.00;;;;;14.79;81.66;-19605.63;4991351;28;45503;-88
2023/03/13 06:44:45;;;;;;;;;3.67;2.00;;;;;15.37;81.83;-19620.81;4999906;28;45305;-88
2023/03/13 06:47:10;;;;;;;;;3.00;3.00;;;;;15.39;81.66;-19621.34;4982091;28;48285;-88
2023/03/13 06:49:36;;;;;;;;;3.00;3.00;;;;;15.47;81.65;-19623.34;5000268;28;45356;-90
2023/03/13 06:52:01;;;;;;;;;4.33;2.67;;;;;15.10;81.53;-19613.81;4981713;28;46177;-90
2023/03/13 06:54:27;;;;;;;;;3.00;2.00;;;;;15.45;81.69;-19622.94;4981874;28;45518;-87
2023/03/13 06:56:52;;;;;;;;;2.33;2.33;;;;;14.94;81.85;-19609.66;4996874;28;45838;-89
2023/03/13 06:59:17;;;;;;;;;3.00;3.00;;;;;14.68;81.78;-19602.69;4998585;28;45366;-89
2023/03/13 07:01:43;;;;;;;;;4.00;3.00;;;;;14.09;81.89;-19587.22;4980288;28;45260;-88
2023/03/13 07:04:11;;;;;;;;;3.00;2.67;;;;;15.25;81.94;-19617.59;4999151;28;45339;-88
2023/03/13 07:06:37;;;;;;;;;2.33;2.00;;;;;14.46;81.92;-19597.03;4996477;28;46581;-90
2023/03/13 07:09:03;;;;;;;;;4.00;3.00;;;;;14.27;81.83;-19591.94;4997175;28;45379;-88
2023/03/13 07:11:30;;;;;;;;;3.00;2.67;;;;;14.70;82.08;-19603.22;4997323;28;45502;-87
2023/03/13 07:13:56;;;;;;;;;3.33;3.33;;;;;15.38;81.87;-19621.22;4992754;28;45635;-87
2023/03/13 07:16:21;;;;;;;;;3.00;3.00;;;;;15.59;81.34;-19626.56;4971107;28;47473;-89
2023/03/13 07:18:47;;;;;;;;;4.00;2.33;;;;;15.59;81.66;-19626.72;4991900;28;45329;-91
2023/03/13 07:21:13;;;;;;;;;3.00;2.00;;;;;15.59;81.16;-19626.72;4986996;28;45496;-91
2023/03/13 07:23:39;;;;;;;;;4.00;1.67;;;;;15.63;81.61;-19627.63;4993549;28;45467;-89
2023/03/13 07:26:09;;;;;;;;;2.67;2.67;;;;;15.63;81.58;-19627.63;4994454;28;45658;-89
2023/03/13 07:28:34;;;;;;;;;3.00;3.00;;;;;15.06;81.54;-19612.75;4985475;28;45580;-89
2023/03/13 07:31:07;;;;;;;;;2.00;2.00;;;;;15.62;81.20;-19627.38;4976792;28;45451;-91
2023/03/13 07:33:33;;;;;;;;;4.67;3.33;;;;;15.24;81.34;-19617.31;4981559;28;45506;-91
2023/03/13 07:35:58;;;;;;;;;3.33;2.00;;;;;15.07;80.73;-19612.88;4996797;28;47749;-88
2023/03/13 07:38:24;;;;;;;;;1.00;1.00;;;;;14.86;81.05;-19607.50;4998508;28;45656;-89
2023/03/13 07:40:51;;;;;;;;;4.00;2.33;;;;;15.72;81.21;-19630.06;4980611;28;45910;-91
2023/03/13 07:43:17;;;;;;;;;3.00;2.33;;;;;15.72;81.31;-19630.06;4996537;28;45480;-93
2023/03/13 07:45:54;;;;;;;;;2.00;2.00;;;;;15.63;81.32;-19627.78;4981449;28;47130;-92
2023/03/13 07:48:20;;;;;;;;;3.33;2.67;;;;;15.33;81.38;-19619.72;4989267;28;45760;-92
2023/03/13 07:50:46;;;;;;;;;5.00;2.00;;;;;15.56;81.51;-19625.75;4981008;28;45538;-94
2023/03/13 07:53:11;;;;;;;;;1.67;1.67;;;;;15.76;82.02;-19631.13;4981401;28;45423;-94
2023/03/13 07:55:37;;;;;;;;;2.33;2.33;;;;;15.78;82.28;-19631.66;4981950;28;47218;-94
2023/03/13 07:58:02;;;;;;;;;4.00;3.00;;;;;15.77;82.04;-19631.41;5007866;28;45467;-93
2023/03/13 08:00:27;;;;;;;;;2.00;2.00;;;;;15.78;82.15;-19631.53;4982008;28;45768;-94
2023/03/13 08:02:53;;;;;;;;;2.00;1.00;;;;;15.76;82.03;-19631.00;4997569;28;45600;-93
2023/03/13 08:05:18;;;;;;;;;3.00;3.00;;;;;15.54;81.79;-19625.34;4980733;28;47476;-95
2023/03/13 08:07:44;;;;;;;;;4.33;2.00;;;;;15.38;83.00;-19621.22;4981850;28;45395;-89
2023/03/13 08:10:10;;;;;;;;;4.00;2.67;;;;;15.31;83.82;-19619.31;4996310;28;45479;-89
2023/03/13 08:12:35;;;;;;;;;3.00;2.00;;;;;15.61;83.96;-19627.09;4997774;28;45330;-89
2023/03/13 08:15:00;;;;;;;;;2.00;2.00;;;;;14.82;83.52;-19606.31;4997619;28;46131;-88
2023/03/13 08:17:28;;;;;;;;;4.33;3.00;;;;;15.54;83.83;-19625.22;4980133;28;45377;-89
2023/03/13 08:19:54;;;;;;;;;2.00;2.00;;;;;14.97;83.46;-19610.47;4993652;28;45464;-89
2023/03/13 08:22:19;;;;;;;;;4.00;4.00;;;;;15.26;83.29;-19617.84;4993710;28;45463;-89
2023/03/13 08:24:44;;;;;;;;;3.00;2.00;;;;;15.03;83.14;-19611.81;4997510;28;46362;-89
2023/03/13 08:27:10;;;;;;;;;1.00;1.00;;;;;14.96;83.15;-19610.19;4980207;28;45478;-90
2023/03/13 08:29:35;;;;;;;;;2.67;2.67;;;;;15.08;83.03;-19613.16;4997697;28;45387;-89
2023/03/13 08:32:01;;;;;;;;;2.67;2.33;;;;;15.15;82.87;-19615.03;4996924;28;45416;-90
2023/03/13 08:34:26;;;;;;;;;3.33;2.33;;;;;15.15;83.23;-19615.16;4991429;28;46401;-89
2023/03/13 08:36:51;;;;;;;;;2.00;2.00;;;;;15.93;83.10;-19635.44;4995928;28;45392;-90
2023/03/13 08:39:19;;;;;;;;;2.33;2.00;;;;;14.95;82.36;-19609.94;4997268;28;45718;-89
2023/03/13 08:41:45;;;;;;;;;3.00;3.00;;;;;15.88;82.31;-19634.09;4979763;28;45437;-89
2023/03/13 08:44:13;;;;;;;;;3.33;2.67;;;;;15.62;82.14;-19627.38;4997294;28;45467;-89
2023/03/13 08:46:40;;;;;;;;;4.00;1.00;;;;;14.71;82.36;-19603.50;4978956;28;45386;-88
2023/03/13 08:49:07;;;;;;;;;3.00;3.00;;;;;15.32;82.42;-19619.47;4973752;28;45378;-90
2023/03/13 08:51:33;;;;;;;;;0.00;0.00;;;;;16.00;81.93;-19637.31;4996556;28;45403;-88
2023/03/13 08:54:00;;;;;;;;;3.67;2.00;;;;;15.66;82.13;-19628.44;4995914;28;46678;-88
2023/03/13 08:56:29;;;;;;;;;3.00;3.00;;;;;16.10;82.21;-19639.84;4996385;28;45482;-87
2023/03/13 08:58:59;;;;;;;;;3.33;2.00;;;;;14.76;81.89;-19604.84;4989096;28;45361;-89
2023/03/13 09:01:28;;;;;;;;;2.67;1.00;;;;;15.74;81.46;-19630.59;4978806;28;45489;-87
2023/03/13 09:03:53;;;;;;;;;3.00;3.00;;;;;15.20;81.31;-19616.38;4993876;28;47595;-89
2023/03/13 09:06:19;;;;;;;;;2.00;2.00;;;;;15.25;80.59;-19617.59;4996111;28;45491;-89
2023/03/13 09:08:45;;;;;;;;;2.00;2.00;;;;;16.45;80.53;-19649.22;4995704;28;45464;-92
2023/03/13 09:11:16;;;;;;;;;4.00;2.67;;;;;16.50;79.91;-19650.28;4975211;28;45510;-95
2023/03/13 09:13:44;;;;;;;;;2.00;2.00;;;;;16.34;80.26;-19646.28;4997059;28;48234;-96
2023/03/13 09:16:13;;;;;;;;;2.00;2.00;;;;;16.54;79.49;-19651.50;4980571;28;46254;-93
2023/03/13 09:18:39;;;;;;;;;1.33;1.33;;;;;16.55;80.14;-19651.78;4980662;28;45364;-92
2023/03/13 09:21:07;;;;;;;;;1.00;1.00;;;;;16.37;80.14;-19646.94;4998430;28;45372;-94
2023/03/13 09:23:32;;;;;;;;;1.67;1.67;;;;;15.83;81.31;-19632.88;4980141;28;48080;-94
2023/03/13 09:25:58;;;;;;;;;4.33;2.00;;;;;16.33;81.19;-19646.00;4980447;28;45476;-92
2023/03/13 09:28:24;;;;;;;;;4.00;1.33;;;;;16.49;81.24;-19650.03;4980734;28;45716;-95
2023/03/13 09:30:50;;;;;;;;;1.67;1.00;;;;;16.13;82.46;-19640.66;4980677;28;45340;-95
2023/03/13 09:33:16;;;;;;;;;1.67;1.67;;;;;15.90;83.06;-19634.63;4996842;28;47501;-93
2023/03/13 09:35:42;;;;;;;;;2.00;2.00;;;;;15.80;83.56;-19632.06;4998015;28;45447;-94
2023/03/13 09:38:08;;;;;;;;;2.00;2.00;;;;;15.96;83.90;-19636.22;4980464;28;45457;-92
2023/03/13 09:40:43;;;;;;;;;1.00;1.00;;;;;15.83;84.77;-19633.00;4980929;28;45380;-93
2023/03/13 09:43:41;;;;;;;;;4.00;2.00;;;;;16.30;85.21;-19645.06;4980023;28;47561;-93
2023/03/13 09:46:14;;;;;;;;;2.67;1.33;;;;;16.27;84.97;-19644.41;4980413;28;46092;-95
2023/03/13 09:48:45;;;;;;;;;2.33;2.33;;;;;16.22;84.39;-19643.06;4980835;28;45412;-95
2023/03/13 09:51:16;;;;;;;;;3.00;3.00;;;;;16.33;84.68;-19645.88;4981013;28;45550;-94
2023/03/13 09:53:49;;;;;;;;;4.33;3.00;;;;;16.32;84.45;-19645.59;4980735;28;47277;-96
2023/03/13 09:56:18;;;;;;;;;2.67;2.67;;;;;16.29;84.59;-19644.81;4998128;28;45331;-94
2023/03/13 09:58:53;;;;;;;;;4.00;2.33;;;;;16.10;84.32;-19639.84;4997199;28;45310;-94
2023/03/13 10:01:25;;;;;;;;;2.00;2.00;;;;;16.17;83.62;-19641.84;4981033;28;45390;-93
2023/03/13 10:03:59;;;;;;;;;3.00;2.00;;;;;16.32;83.52;-19645.75;5024534;22;46772;-89
2023/03/13 10:06:27;;;;;;;;;2.00;2.00;;;;;16.36;83.50;-19646.69;4980421;28;45377;-87
2023/03/13 10:08:53;;;;;;;;;3.00;2.00;;;;;16.02;82.93;-19637.97;4996728;28;45810;-87
2023/03/13 10:11:38;;;;;;;;;2.33;2.33;;;;;16.41;82.83;-19648.03;4985731;28;45361;-88
2023/03/13 10:14:31;;;;;;;;;3.00;2.00;;;;;16.45;81.95;-19649.22;4977298;28;45362;-88
2023/03/13 10:17:13;;;;;;;;;1.00;1.00;;;;;16.46;82.47;-19649.50;4976457;28;45424;-88
2023/03/13 10:19:46;;;;;;;;;1.00;1.00;;;;;16.55;81.83;-19651.63;4976954;28;45371;-89
2023/03/13 10:22:19;;;;;;;;;3.00;2.00;;;;;16.60;81.29;-19652.97;4959963;28;45532;-88
2023/03/13 10:25:01;;;;;;;;;1.33;1.33;;;;;16.19;80.30;-19642.41;4976568;28;47419;-87
2023/03/13 10:27:27;;;;;;;;;1.00;1.00;;;;;16.61;80.21;-19653.25;4976876;28;45345;-89
2023/03/13 10:29:52;;;;;;;;;1.50;1.50;;;;;16.24;80.22;-19643.72;4976511;28;45463;-88
2023/03/13 10:32:18;;;;;;;;;1.00;1.00;;;;;16.51;80.00;-19650.69;4977415;28;45362;-88
2023/03/13 10:34:59;;;;;;;;;0.50;0.50;;;;;16.68;79.11;-19655.25;4976753;28;46404;-89
2023/03/13 10:37:30;;;;;;;;;1.00;1.00;;;;;16.72;79.63;-19656.19;4976828;28;45405;-88
2023/03/13 10:40:21;;;;;;;;;1.33;1.33;;;;;16.66;78.78;-19654.59;4976605;28;45334;-89
2023/03/13 10:42:48;;;;;;;;;1.00;1.00;;;;;17.04;79.45;-19664.50;4976879;28;45349;-88
2023/03/13 10:45:18;;;;;;;;;0.00;0.00;;;;;18.16;77.32;-19693.66;4976286;28;47030;-89
2023/03/13 10:47:44;;;;;;;;;4.00;1.00;;;;;19.89;73.51;-19738.81;4976496;28;45371;-89
2023/03/13 10:50:19;;;;;;;;;1.00;1.00;;;;;20.97;69.00;-19767.06;4976742;28;45270;-89
2023/03/13 10:52:46;;;;;;;;;2.25;1.00;;;;;22.14;65.93;-19797.41;4976853;28;45639;-88
2023/03/13 10:55:16;;;;;;;;;1.00;1.00;;;;;23.33;61.50;-19828.25;4976596;28;46999;-90
2023/03/13 10:57:53;;;;;;;;;0.75;0.75;;;;;24.20;58.42;-19850.94;4976445;28;45446;-89
2023/03/13 11:00:40;;;;;;;;;1.50;0.50;;;;;24.71;56.87;-19863.94;4989302;28;45414;-89
2023/03/13 11:03:22;;;;;;;;;0.00;0.00;;;;;24.17;55.12;-19850.03;4996765;28;45530;-90
2023/03/13 11:05:57;;;;;;;;;0.75;0.75;;;;;24.04;55.07;-19846.72;4996066;28;46322;-91
2023/03/13 11:08:26;;;;;;;;;1.00;1.00;;;;;23.98;55.27;-19845.25;4996309;28;45314;-89
2023/03/13 11:11:00;;;;;;;;;0.00;0.00;;;;;23.91;55.65;-19843.41;4995909;28;45477;-89
2023/03/13 11:13:33;;;;;;;;;1.00;1.00;;;;;23.87;53.94;-19842.34;4996089;28;45462;-91
2023/03/13 11:16:07;;;;;;;;;0.00;0.00;;;;;23.58;54.82;-19832.91;4988471;28;47164;-88
2023/03/13 11:18:41;;;;;;;;;0.80;0.80;;;;;23.03;54.77;-19481.09;4974092;28;45433;-88
2023/03/13 11:21:16;;;;;;;;;1.00;1.00;;;;;22.41;55.36;-19465.19;4979300;28;45374;-90
2023/03/13 11:23:48;;;;;;;;;1.00;0.00;;;;;22.00;55.80;-19117.94;4975963;28;45375;-87
2023/03/13 11:26:38;;;;;;;;;1.00;1.00;;;;;21.59;56.87;-19107.59;4975921;28;45692;-87
2023/03/13 11:29:18;;;;;;;;;2.25;1.25;;;;;21.53;57.22;-19106.19;4979846;28;45401;-87
2023/03/13 11:31:47;;;;;;;;;0.75;0.75;;;;;21.29;57.57;-19100.31;4978570;28;45380;-87
2023/03/13 11:34:37;;;;;;;;;2.75;1.00;;;;;20.98;58.23;-19092.53;4979248;28;45551;-87
2023/03/13 11:37:12;;;;;;;;;1.00;1.00;;;;;20.61;59.03;-19083.31;4974954;28;46282;-87
2023/03/13 11:39:53;;;;;;;;;1.25;0.50;;;;;20.34;58.50;-18740.31;4967799;28;45476;-88
2023/03/13 11:42:39;;;;;;;;;1.00;1.00;;;;;20.12;58.97;-18734.91;4978580;28;45532;-92
2023/03/13 11:45:23;;;;;;;;;2.00;2.00;;;;;19.81;58.96;-18391.66;4975646;28;45341;-88
2023/03/13 11:48:15;;;;;;;;;0.25;0.25;;;;;19.22;59.11;-18377.31;4975110;28;45695;-88
2023/03/13 11:50:59;;;;;;;;;1.00;1.00;;;;;19.07;60.35;-18709.38;4977828;28;45527;-88
2023/03/13 11:53:50;;;;;;;;;1.00;1.00;;;;;18.65;59.76;-18363.69;4978215;28;45538;-89
2023/03/13 11:56:49;;;;;;;;;1.00;1.00;;;;;19.10;60.04;-18710.00;4961286;28;45514;-87
2023/03/13 11:59:36;;;;;;;;;1.00;0.00;;;;;18.91;59.88;-18370.09;4974194;28;46261;-88
2023/03/13 12:02:01;;;;;;;;;1.00;1.00;;;;;18.76;59.88;-18031.19;4952637;28;45568;-89
2023/03/13 12:04:35;;;;;;;;;1.00;1.00;;;;;18.32;59.46;-17685.72;4978336;28;45364;-88
2023/03/13 12:07:33;;;;;;;;;1.00;1.00;;;;;18.54;60.17;-17690.78;4972590;28;45404;-88
2023/03/13 12:10:08;;;;;;;;;1.00;1.00;;;;;18.00;59.99;-17678.34;4969401;28;47441;-88
2023/03/13 12:12:44;;;;;;;;;2.75;1.00;;;;;18.21;60.28;-18018.09;4977640;28;45401;-88
2023/03/13 12:15:27;;;;;;;;;3.00;1.00;;;;;18.26;60.36;-17684.19;4978430;28;45386;-88
2023/03/13 12:18:19;;;;;;;;;1.00;1.00;;;;;18.37;60.30;-18021.94;4973840;28;45322;-87
2023/03/13 12:21:12;;;;;;;;;0.00;0.00;;;;;18.34;60.50;-18021.34;4977498;28;46326;-88
2023/03/13 12:24:02;;;;;;;;;2.00;2.00;;;;;18.33;60.43;-18020.97;4977205;28;45513;-88
2023/03/13 12:26:54;;;;;;;;;2.00;1.00;;;;;18.32;61.18;-18355.97;4977560;28;45298;-88
2023/03/13 12:29:43;;;;;;;;;2.00;0.25;;;;;18.30;61.14;-18355.47;4966445;28;45639;-88
2023/03/13 12:32:20;;;;;;;;;1.25;0.75;;;;;18.28;61.34;-18355.00;4954084;28;47255;-88
2023/03/13 12:34:48;;;;;;;;;1.00;1.00;;;;;18.30;60.93;-18690.56;4978267;28;45417;-87
2023/03/13 12:37:37;;;;;;;;;2.00;2.00;;;;;18.29;60.99;-18690.31;4961293;28;45310;-87
2023/03/13 12:40:33;;;;;;;;;2.00;2.00;;;;;18.28;61.42;-18690.03;4969852;28;45577;-84
2023/03/13 12:43:20;;;;;;;;;1.25;1.25;;;;;18.24;61.65;-18688.91;4978130;28;47244;-87
2023/03/13 12:46:14;;;;;;;;;1.00;1.00;;;;;18.04;62.29;-19019.06;4978314;28;45474;-88
2023/03/13 12:48:40;;;;;;;;;1.00;1.00;;;;;18.28;62.32;-19024.94;4973024;28;45920;-87
2023/03/13 12:52:01;;;;;;;;;0.25;0.25;;;;;18.32;61.95;-19361.00;4977344;28;45436;-88
2023/03/13 12:54:52;;;;;;;;;1.00;1.00;;;;;18.12;62.10;-19356.03;4921457;28;47083;-87
2023/03/13 12:57:23;;;;;;;;;4.00;1.50;;;;;18.39;61.98;-19362.69;4937134;28;45421;-87
2023/03/13 17:02:36;;;;;;;;;0.25;0.25;;;;;15.77;66.43;-19631.41;5175267;23;45847;-90
2023/03/13 17:05:01;;;;;;;;;0.00;0.00;;;;;16.53;66.32;-19651.25;4976394;28;46286;-87
2023/03/13 17:07:28;;;;;;;;;1.00;1.00;;;;;16.48;66.79;-19649.75;4997067;28;45392;-87
2023/03/13 17:09:54;;;;;;;;;0.25;0.25;;;;;16.65;66.22;-19654.44;4996272;28;46641;-88
2023/03/13 17:12:19;;;;;;;;;0.00;0.00;;;;;16.39;66.55;-19647.50;4996934;28;45547;-87
2023/03/13 17:14:45;;;;;;;;;0.00;0.00;;;;;16.37;66.14;-19647.09;4996157;28;45272;-87
2023/03/13 17:17:17;;;;;;;;;3.00;0.00;;;;;16.32;66.61;-19645.59;4996943;28;45299;-86
2023/03/13 17:19:43;;;;;;;;;1.00;1.00;;;;;16.62;67.12;-19653.66;4987606;28;46322;-86
2023/03/13 17:22:12;;;;;;;;;0.75;0.75;;;;;16.28;66.41;-19644.66;4978623;28;46239;-87
2023/03/13 17:24:37;;;;;;;;;0.25;0.25;;;;;16.43;66.84;-19648.56;4994557;28;45503;-87
2023/03/13 17:27:03;;;;;;;;;1.00;1.00;;;;;16.37;66.88;-19647.09;4997260;28;45294;-86
2023/03/13 17:29:28;;;;;;;;;0.00;0.00;;;;;16.39;66.74;-19647.50;4995357;28;46334;-87
2023/03/13 17:31:53;;;;;;;;;2.00;0.00;;;;;16.17;66.77;-19641.84;4995898;28;45412;-87
2023/03/13 17:34:19;;;;;;;;;0.33;0.33;;;;;16.07;67.00;-19639.19;4996450;28;45693;-86
2023/03/13 17:36:45;;;;;;;;;0.00;0.00;;;;;16.41;67.27;-19648.16;4985903;28;45345;-87
2023/03/13 17:39:12;;;;;;;;;0.00;0.00;;;;;16.24;67.14;-19643.59;4991563;28;46579;-89
2023/03/13 17:41:38;;;;;;;;;0.33;0.00;;;;;16.06;67.63;-19638.91;4996159;28;45459;-86
2023/03/13 17:44:04;;;;;;;;;2.33;0.67;;;;;16.04;67.77;-19638.38;4993455;28;45841;-88
2023/03/13 17:46:35;;;;;;;;;3.00;1.00;;;;;16.36;67.70;-19646.81;4980939;28;45596;-86
2023/03/13 17:49:01;;;;;;;;;0.00;0.00;;;;;16.32;67.91;-19645.75;4996091;28;46874;-87
2023/03/13 17:51:29;;;;;;;;;1.00;1.00;;;;;16.30;68.49;-19645.06;4993405;28;46383;-87
2023/03/13 17:53:58;;;;;;;;;1.33;1.00;;;;;15.13;68.04;-19614.50;4993620;28;45401;-87
2023/03/13 17:56:26;;;;;;;;;1.00;1.00;;;;;16.20;67.93;-19642.66;4989703;28;45573;-88
2023/03/13 17:58:59;;;;;;;;;1.00;0.75;;;;;16.15;68.28;-19641.31;4994937;28;45558;-86
2023/03/13 18:01:42;;;;;;;;;3.00;1.00;;;;;15.43;69.17;-19622.41;4994971;28;45471;-87
2023/03/13 18:04:09;;;;;;;;;4.00;0.33;;;;;14.88;68.62;-19607.91;4996197;28;45527;-87
2023/03/13 18:06:43;;;;;;;;;2.00;2.00;;;;;14.86;68.70;-19607.50;4989065;28;45455;-86
2023/03/13 18:09:21;;;;;;;;;1.00;1.00;;;;;14.53;69.06;-19598.91;4991969;28;45671;-87
2023/03/13 18:11:47;;;;;;;;;2.00;1.00;;;;;15.45;69.30;-19622.81;4988953;28;45561;-86
2023/03/13 18:14:13;;;;;;;;;2.33;1.00;;;;;15.30;69.02;-19619.06;4995270;28;45308;-85
2023/03/13 18:19:35;;;;;;;;;1.00;1.00;;;;;15.89;69.69;-19634.34;5001242;23;45448;-86
2023/03/13 18:22:00;;;;;;;;;3.00;2.00;;;;;14.55;70.10;-19599.31;4973929;28;47676;-85
2023/03/13 18:24:52;;;;;;;;;1.33;1.33;;;;;14.28;69.67;-19592.34;4993642;28;45507;-88
2023/03/13 18:27:19;;;;;;;;;2.00;1.00;;;;;15.84;69.66;-19633.16;4979658;28;45496;-86
2023/03/13 18:29:47;;;;;;;;;1.67;1.00;;;;;14.39;69.73;-19595.03;4977031;28;46125;-86
2023/03/13 18:32:17;;;;;;;;;1.00;1.00;;;;;15.83;70.07;-19632.88;4994160;28;45474;-87
2023/03/13 18:34:43;;;;;;;;;0.00;0.00;;;;;14.57;69.65;-19599.88;4991602;28;45389;-84
2023/03/13 18:37:29;;;;;;;;;2.00;2.00;;;;;15.79;69.58;-19631.94;4979697;28;45568;-84
2023/03/13 18:39:56;;;;;;;;;4.67;2.00;;;;;15.74;69.85;-19630.47;4990093;28;45418;-83
2023/03/13 18:42:23;;;;;;;;;2.00;1.00;;;;;15.36;69.74;-19620.66;4998652;28;45353;-84
2023/03/13 18:44:48;;;;;;;;;1.67;1.33;;;;;15.76;69.92;-19631.13;4993076;28;45596;-84
2023/03/13 18:47:16;;;;;;;;;4.00;2.00;;;;;15.40;70.01;-19621.59;4988942;28;45371;-83
2023/03/13 18:49:42;;;;;;;;;4.00;2.00;;;;;15.46;69.54;-19623.22;4992057;28;45895;-83
2023/03/13 18:52:09;;;;;;;;;2.00;1.00;;;;;15.14;69.76;-19614.91;4998241;28;45462;-83
2023/03/13 18:54:49;;;;;;;;;2.00;0.33;;;;;15.20;69.54;-19616.38;4997501;28;45502;-88
2023/03/13 18:57:18;;;;;;;;;3.00;1.00;;;;;14.89;69.81;-19608.19;4997389;28;45511;-86
2023/03/13 18:59:47;;;;;;;;;2.33;2.00;;;;;14.36;69.72;-19594.34;4997910;28;46107;-89
2023/03/13 19:02:15;;;;;;;;;4.00;2.00;;;;;15.08;69.82;-19613.28;4997989;28;45487;-90
2023/03/13 19:05:20;;;;;;;;;2.00;2.00;;;;;15.72;69.72;-19629.94;4997855;28;45894;-88
2023/03/13 19:07:49;;;;;;;;;3.00;3.00;;;;;14.51;69.36;-19598.38;4997410;28;46349;-90
2023/03/13 19:13:39;;;;;;;;;1.00;1.00;;;;;15.44;71.17;-19622.53;5006350;22;45699;-89
2023/03/13 19:16:14;;;;;;;;;1.33;1.00;;;;;15.14;72.17;-19614.91;4991868;28;45725;-87
2023/03/13 19:18:43;;;;;;;;;4.33;3.00;;;;;15.43;73.21;-19622.41;4992136;28;45588;-93
2023/03/13 19:21:25;;;;;;;;;4.00;1.00;;;;;14.27;75.14;-19592.06;4987733;23;47062;-88
2023/03/13 19:23:53;;;;;;;;;3.67;1.67;;;;;13.38;77.39;-19568.56;4988714;28;45432;-90
2023/03/13 19:26:34;;;;;;;;;3.00;2.00;;;;;15.37;78.71;-19620.94;4997353;28;45530;-90
2023/03/13 19:32:14;;;;;;;;;2.00;2.00;;;;;14.51;78.12;-19598.25;4997785;28;45874;-90
2023/03/13 19:34:48;;;;;;;;;3.33;3.00;;;;;13.92;78.69;-19582.81;4975119;28;45597;-89
2023/03/13 19:37:15;;;;;;;;;4.00;2.00;;;;;15.01;78.50;-19611.28;4978036;28;45634;-91
2023/03/13 19:39:40;;;;;;;;;4.67;2.33;;;;;14.78;78.55;-19605.38;5003271;22;45928;-88
2023/03/13 19:42:07;;;;;;;;;6.00;3.00;;;;;14.91;78.79;-19608.72;4996837;28;46529;-90
2023/03/13 19:44:33;;;;;;;;;1.33;1.00;;;;;14.22;78.53;-19590.59;4980241;28;45408;-87
2023/03/13 19:46:59;;;;;;;;;3.33;2.00;;;;;13.78;78.92;-19579.16;4975672;28;45647;-91
2023/03/13 19:49:25;;;;;;;;;2.00;2.00;;;;;14.08;78.89;-19587.09;4992084;28;45433;-90
2023/03/13 19:51:50;;;;;;;;;2.00;2.00;;;;;14.32;78.41;-19593.41;4978937;28;47260;-89
2023/03/13 19:54:17;;;;;;;;;1.00;1.00;;;;;14.69;78.18;-19602.97;4992284;28;45977;-91
2023/03/13 19:56:45;;;;;;;;;3.33;2.33;;;;;14.65;78.36;-19601.88;4997288;28;45778;-92
2023/03/13 19:59:17;;;;;;;;;1.33;1.33;;;;;14.65;79.02;-19602.00;4980787;28;45475;-89
2023/03/13 20:01:42;;;;;;;;;1.00;1.00;;;;;13.29;77.51;-19566.25;4993772;28;46712;-90
2023/03/13 20:04:09;;;;;;;;;0.00;0.00;;;;;14.10;77.21;-19587.50;4984131;28;45368;-89
2023/03/13 20:06:35;;;;;;;;;2.00;0.33;;;;;14.61;76.70;-19600.81;4995403;28;46612;-90
2023/03/13 20:09:04;;;;;;;;;1.00;1.00;;;;;13.77;76.61;-19578.78;4978381;28;45512;-90
2023/03/13 20:11:30;;;;;;;;;4.00;2.33;;;;;13.92;76.48;-19582.81;4995277;28;45444;-89
2023/03/13 20:13:56;;;;;;;;;5.67;2.00;;;;;14.19;75.93;-19589.94;4995186;28;45540;-91
2023/03/13 20:16:26;;;;;;;;;5.00;2.00;;;;;14.20;76.42;-19590.19;4978455;28;45801;-89
2023/03/13 20:18:54;;;;;;;;;3.00;1.67;;;;;14.53;75.99;-19598.91;4997447;28;45582;-88
2023/03/13 20:21:20;;;;;;;;;2.00;2.00;;;;;14.25;75.93;-19591.53;4996005;28;46501;-91
2023/03/13 20:23:47;;;;;;;;;3.67;1.67;;;;;14.17;76.09;-19589.25;4978895;28;46634;-89
2023/03/13 20:26:15;;;;;;;;;3.33;2.00;;;;;14.09;75.74;-19587.38;4981499;28;45540;-95
2023/03/13 20:28:43;;;;;;;;;1.00;1.00;;;;;14.17;74.97;-19589.25;4981592;28;45551;-96
2023/03/13 20:31:09;;;;;;;;;6.33;1.00;;;;;13.58;74.79;-19573.78;4982191;28;48332;-95
2023/03/13 20:33:39;;;;;;;;;2.00;1.00;;;;;13.41;74.68;-19569.34;4983104;28;45328;-96
2023/03/13 20:36:08;;;;;;;;;2.67;2.00;;;;;14.56;74.44;-19599.59;4986219;28;45435;-93
2023/03/13 20:38:38;;;;;;;;;4.00;2.00;;;;;14.47;74.26;-19597.16;4999797;28;45646;-96
2023/03/13 20:41:03;;;;;;;;;3.00;2.00;;;;;12.95;74.42;-19557.38;4986981;28;47225;-92
2023/03/13 20:43:29;;;;;;;;;2.00;1.00;;;;;13.81;74.54;-19579.97;4977380;28;46455;-94
2023/03/13 20:45:55;;;;;;;;;4.00;1.00;;;;;13.93;73.88;-19583.22;4981205;28;45814;-93
2023/03/13 20:48:21;;;;;;;;;3.00;2.00;;;;;13.90;73.84;-19582.25;4978784;28;45602;-91
2023/03/13 20:50:51;;;;;;;;;3.33;2.00;;;;;14.60;74.49;-19600.53;4981048;28;47067;-93
2023/03/13 20:53:17;;;;;;;;;3.00;2.00;;;;;13.57;74.29;-19573.53;4997865;28;45703;-94
2023/03/13 20:55:42;;;;;;;;;4.33;1.67;;;;;13.90;73.82;-19582.41;4981067;28;45423;-93
2023/03/13 20:58:08;;;;;;;;;3.00;3.00;;;;;13.51;73.04;-19572.06;4979797;28;45428;-93
2023/03/13 21:00:33;;;;;;;;;2.33;1.00;;;;;13.65;72.94;-19575.69;4967413;28;47417;-94
2023/03/13 21:02:59;;;;;;;;;7.00;3.33;;;;;14.53;72.05;-19598.91;4991311;28;46245;-90
2023/03/13 21:05:25;;;;;;;;;4.00;1.00;;;;;14.65;72.32;-19602.00;4980981;28;45357;-93
2023/03/13 21:07:51;;;;;;;;;2.00;2.00;;;;;14.63;71.54;-19601.47;4979045;28;45512;-95
2023/03/13 21:10:17;;;;;;;;;3.33;2.00;;;;;14.56;70.97;-19599.72;4979596;28;47075;-95
2023/03/13 21:12:43;;;;;;;;;1.67;1.67;;;;;12.71;70.17;-19551.06;4982237;28;45261;-95
2023/03/13 21:15:09;;;;;;;;;4.33;1.00;;;;;14.24;70.81;-19591.25;4979850;28;45306;-92
2023/03/13 21:17:35;;;;;;;;;2.33;1.00;;;;;13.85;70.30;-19581.06;4980802;28;45333;-93
2023/03/13 21:20:00;;;;;;;;;3.33;1.33;;;;;14.21;70.75;-19590.31;4971696;28;47473;-94
2023/03/13 21:22:28;;;;;;;;;2.00;0.00;;;;;13.89;69.47;-19582.00;4995535;28;45488;-93
2023/03/13 21:24:53;;;;;;;;;5.33;2.00;;;;;13.90;69.74;-19582.41;4980263;28;45404;-94
2023/03/13 21:27:19;;;;;;;;;7.33;1.67;;;;;14.49;69.59;-19597.84;4977469;28;45442;-93
2023/03/13 21:29:46;;;;;;;;;1.00;1.00;;;;;14.76;68.00;-19604.84;4974506;28;47304;-94
2023/03/13 21:32:13;;;;;;;;;1.00;0.67;;;;;14.71;67.38;-19603.50;4978906;28;45541;-93
2023/03/13 21:34:42;;;;;;;;;1.00;1.00;;;;;14.73;67.93;-19604.16;4979209;28;45250;-92
2023/03/13 21:37:08;;;;;;;;;0.67;0.67;;;;;14.55;67.93;-19599.47;4977653;28;46128;-93
2023/03/13 21:39:33;;;;;;;;;1.33;0.67;;;;;14.15;67.38;-19588.97;4979305;28;48597;-94
2023/03/13 21:41:58;;;;;;;;;1.33;1.33;;;;;14.34;67.79;-19593.81;4985210;28;45820;-93
2023/03/13 21:44:24;;;;;;;;;4.00;1.00;;;;;13.73;67.78;-19577.84;4981399;28;45602;-93
2023/03/13 21:46:50;;;;;;;;;3.33;1.67;;;;;14.27;66.62;-19591.94;4977426;28;45409;-92
2023/03/13 21:49:15;;;;;;;;;2.67;1.00;;;;;14.32;67.03;-19593.41;4979665;28;48221;-93
2023/03/13 21:51:41;;;;;;;;;2.33;1.00;;;;;13.72;66.28;-19577.56;4980092;28;45444;-94